Time;durP1;ratioP1;P1;durP2;ratioP2;P2;SDS_P1;SDS_P2;PMS_P1;PMS_P2;Temp;Humidity;BMP_temperature;BMP_pressure;BME280_temperature;BME280_humidity;BME280_pressure;Samples;Min_cycle;Max_cycle;Signal;HPM_P1;HPM_P2
2023/05/22 00:02:31;;;;;;;7.00;5.00;;;;;;;15.25;59.53;100504.27;129464;1257;114710;-61
2023/05/22 00:05:37;;;;;;;7.90;5.20;;;;;;;15.20;59.66;100502.81;129549;1257;114631;-65
2023/05/22 00:08:40;;;;;;;12.70;4.60;;;;;;;15.15;59.69;100499.52;129501;1262;114751;-61
2023/05/22 00:11:42;;;;;;;9.60;4.70;;;;;;;15.10;59.80;100496.06;129586;1262;115361;-63
2023/05/22 00:14:45;;;;;;;8.90;4.90;;;;;;;15.05;59.94;100496.04;129600;1259;114736;-62
2023/05/22 00:17:47;;;;;;;11.60;5.30;;;;;;;15.00;60.19;100495.80;129784;1257;114694;-64
2023/05/22 00:20:50;;;;;;;6.60;5.20;;;;;;;14.95;60.45;100498.53;129436;1280;115236;-63
2023/05/22 00:23:53;;;;;;;6.10;4.70;;;;;;;14.89;60.50;100497.44;129512;1258;114757;-63
2023/05/22 00:26:55;;;;;;;7.70;5.90;;;;;;;14.83;60.45;100496.01;129453;1262;114768;-63
2023/05/22 00:30:01;;;;;;;9.90;4.90;;;;;;;14.77;60.40;100496.57;129524;1257;114807;-66
2023/05/22 00:33:03;;;;;;;6.90;4.70;;;;;;;14.70;60.92;100496.64;129541;1262;114709;-65
2023/05/22 00:36:06;;;;;;;6.90;4.60;;;;;;;14.64;60.67;100493.41;129548;1259;114775;-65
2023/05/22 00:39:08;;;;;;;8.10;5.20;;;;;;;14.59;61.05;100492.30;129605;1262;115259;-63
2023/05/22 00:42:11;;;;;;;12.30;5.50;;;;;;;14.54;60.76;100492.10;129721;1257;114937;-61
2023/05/22 00:45:16;;;;;;;8.20;5.10;;;;;;;14.47;60.86;100490.36;129507;1262;114758;-62
2023/05/22 00:48:18;;;;;;;10.60;6.10;;;;;;;14.41;61.15;100487.86;129607;1259;114747;-61
2023/05/22 00:51:21;;;;;;;7.50;4.40;;;;;;;14.36;61.04;100488.50;129429;1259;114765;-61
2023/05/22 00:54:23;;;;;;;6.70;4.50;;;;;;;14.33;61.14;100491.08;129476;1280;115162;-61
2023/05/22 00:57:26;;;;;;;9.60;5.00;;;;;;;14.28;61.17;100490.26;129589;1277;114713;-65
2023/05/22 01:00:28;;;;;;;6.30;5.30;;;;;;;14.24;61.35;100487.27;129447;1256;115407;-61
2023/05/22 01:03:30;;;;;;;7.40;5.10;;;;;;;14.20;61.36;100485.74;129637;1272;115743;-61
2023/05/22 01:06:33;;;;;;;7.20;4.60;;;;;;;14.16;61.51;100490.11;129634;1256;115145;-61
2023/05/22 01:09:35;;;;;;;9.10;4.80;;;;;;;14.12;61.58;100494.50;129656;1256;115130;-60
2023/05/22 01:12:45;;;;;;;7.30;4.80;;;;;;;14.08;61.70;100497.06;129442;1265;115425;-61
2023/05/22 01:16:05;;;;;;;6.70;5.00;;;;;;;14.04;61.71;100495.00;129538;1280;129792;-61
2023/05/22 01:19:33;;;;;;;6.00;5.30;;;;;;;13.98;61.75;100494.41;129545;1280;115156;-61
2023/05/22 01:22:57;;;;;;;5.20;4.10;;;;;;;13.95;61.75;100496.08;129606;1256;114766;-63
2023/05/22 01:26:08;;;;;;;7.90;4.50;;;;;;;13.91;61.77;100497.55;129726;1262;115237;-61
2023/05/22 01:29:48;;;;;;;9.30;5.00;;;;;;;13.87;61.98;100498.70;129434;1264;114902;-64
2023/05/22 01:32:51;;;;;;;7.20;4.90;;;;;;;13.82;62.03;100500.20;129739;1280;128940;-63
2023/05/22 01:35:56;;;;;;;6.70;4.80;;;;;;;13.79;61.91;100498.80;129719;1260;114720;-65
2023/05/22 01:39:00;;;;;;;8.40;4.80;;;;;;;13.75;61.86;100499.71;129660;1280;114737;-64
2023/05/22 01:42:03;;;;;;;7.10;4.30;;;;;;;13.72;62.00;100502.28;129466;1256;114809;-65
2023/05/22 01:45:08;;;;;;;9.40;5.10;;;;;;;13.69;62.06;100500.69;129674;1257;115498;-65
2023/05/22 01:48:11;;;;;;;;;;;;;;;13.65;62.25;100497.29;129560;1260;128631;-63
2023/05/22 01:51:16;;;;;;;8.30;5.20;;;;;;;13.61;62.33;100499.17;129502;1257;114735;-65
2023/05/22 01:54:23;;;;;;;7.70;4.60;;;;;;;13.57;62.36;100499.24;129305;1262;114814;-64
2023/05/22 01:57:28;;;;;;;7.20;4.30;;;;;;;13.52;62.48;100496.23;129359;1280;114753;-64
2023/05/22 02:00:32;;;;;;;6.90;4.50;;;;;;;13.49;62.61;100494.09;129457;1280;114761;-61
2023/05/22 02:03:35;;;;;;;9.60;5.00;;;;;;;13.47;62.56;100493.67;129412;1262;128790;-61
2023/05/22 02:06:38;;;;;;;7.90;4.80;;;;;;;13.44;62.58;100491.14;129477;1262;114891;-63
2023/05/22 02:09:40;;;;;;;7.50;5.00;;;;;;;13.42;62.60;100491.82;129549;1261;114645;-61
2023/05/22 02:12:43;;;;;;;6.90;4.80;;;;;;;13.40;62.42;100492.49;129731;1259;115417;-62
2023/05/22 02:15:47;;;;;;;5.30;3.80;;;;;;;13.37;62.54;100491.36;129692;1259;114839;-61
2023/05/22 02:18:50;;;;;;;12.60;5.10;;;;;;;13.33;62.62;100491.03;129676;1280;115348;-61
2023/05/22 02:21:53;;;;;;;7.60;4.50;;;;;;;13.30;62.56;100490.84;129657;1277;114824;-61
2023/05/22 02:24:55;;;;;;;7.90;4.80;;;;;;;13.27;62.83;100485.27;129559;1256;115129;-62
2023/05/22 02:27:57;;;;;;;8.80;4.60;;;;;;;13.25;62.74;100483.61;129861;1260;114748;-63
2023/05/22 02:30:59;;;;;;;8.80;4.70;;;;;;;13.22;62.76;100487.54;129559;1259;114765;-61
2023/05/22 02:34:04;;;;;;;8.60;4.60;;;;;;;13.20;62.73;100486.06;129562;1261;114776;-61
2023/05/22 02:37:06;;;;;;;7.40;4.40;;;;;;;13.17;62.74;100487.98;129636;1273;114688;-61
2023/05/22 02:40:09;;;;;;;6.90;4.50;;;;;;;13.15;62.95;100485.66;129551;1259;115299;-63
2023/05/22 02:43:11;;;;;;;5.50;4.90;;;;;;;13.12;63.08;100486.33;129479;1261;114823;-61
2023/05/22 02:46:13;;;;;;;7.30;4.50;;;;;;;13.09;62.79;100485.45;129586;1259;115171;-62
2023/05/22 02:49:16;;;;;;;7.80;5.30;;;;;;;13.04;62.95;100483.38;129531;1265;114778;-62
2023/05/22 02:52:18;;;;;;;8.80;4.80;;;;;;;12.99;63.16;100486.54;129464;1282;114751;-64
2023/05/22 02:55:21;;;;;;;8.00;5.20;;;;;;;12.95;63.20;100485.88;129565;1275;114813;-62
2023/05/22 02:58:24;;;;;;;9.00;5.30;;;;;;;12.91;63.09;100488.06;129481;1282;114870;-65
2023/05/22 03:01:29;;;;;;;9.70;5.00;;;;;;;12.86;63.39;100487.95;129460;1282;114835;-62
2023/05/22 03:04:31;;;;;;;;;;;;;;;12.84;63.14;100485.03;129399;1274;114937;-65
2023/05/22 03:07:34;;;;;;;7.70;5.10;;;;;;;12.81;63.44;100478.60;129612;1263;114831;-65
2023/05/22 03:10:37;;;;;;;10.00;5.10;;;;;;;12.79;63.31;100479.40;129499;1282;114716;-63
2023/05/22 03:13:39;;;;;;;9.40;5.30;;;;;;;12.79;63.58;100478.52;129492;1259;114816;-64
2023/05/22 03:16:42;;;;;;;10.30;5.00;;;;;;;12.78;63.47;100480.17;129310;1282;116372;-66
2023/05/22 03:19:44;;;;;;;7.70;5.40;;;;;;;12.79;63.58;100477.59;129384;1259;114713;-62
2023/05/22 03:22:47;;;;;;;13.40;4.90;;;;;;;12.81;63.66;100475.73;129652;1260;115374;-66
2023/05/22 03:25:50;;;;;;;9.00;5.60;;;;;;;12.83;63.58;100476.52;129306;1265;114820;-65
2023/05/22 03:28:52;;;;;;;8.10;5.20;;;;;;;12.84;63.55;100475.52;129562;1264;114917;-62
2023/05/22 03:31:56;;;;;;;7.50;5.10;;;;;;;12.86;63.67;100470.59;129686;1279;114775;-63
2023/05/22 03:34:58;;;;;;;6.90;5.40;;;;;;;12.88;63.50;100472.42;129753;1280;114699;-62
2023/05/22 03:38:00;;;;;;;9.20;4.90;;;;;;;12.90;63.49;100477.34;129676;1279;114719;-65
2023/05/22 03:41:03;;;;;;;16.50;6.20;;;;;;;12.91;63.59;100479.79;129856;1262;115328;-65
2023/05/22 03:44:05;;;;;;;7.40;4.60;;;;;;;12.92;63.62;100477.77;129742;1280;116346;-63
2023/05/22 03:47:07;;;;;;;10.50;5.90;;;;;;;12.93;63.65;100475.02;129734;1262;115149;-64
2023/05/22 03:50:10;;;;;;;8.20;5.20;;;;;;;12.96;63.71;100473.28;129640;1261;114937;-64
2023/05/22 03:53:12;;;;;;;10.10;5.50;;;;;;;12.98;63.80;100481.02;129619;1262;116378;-66
2023/05/22 03:56:15;;;;;;;8.80;5.60;;;;;;;13.01;63.81;100481.21;129595;1262;115237;-63
2023/05/22 03:59:17;;;;;;;12.30;6.10;;;;;;;13.04;63.87;100479.27;129647;1261;114734;-63
2023/05/22 04:02:19;;;;;;;9.80;5.70;;;;;;;13.07;63.69;100474.58;129756;1258;114780;-61
2023/05/22 04:05:22;;;;;;;7.40;5.00;;;;;;;13.11;63.71;100470.77;129596;1257;115211;-64
2023/05/22 04:08:24;;;;;;;16.20;5.80;;;;;;;13.17;63.72;100462.92;129731;1260;115121;-62
2023/05/22 04:11:29;;;;;;;10.80;5.40;;;;;;;13.25;63.46;100467.11;129779;1261;115199;-63
2023/05/22 04:14:31;;;;;;;7.20;5.60;;;;;;;13.34;63.56;100467.86;129579;1256;114807;-64
2023/05/22 04:17:40;;;;;;;9.70;5.50;;;;;;;13.44;63.33;100473.59;129845;1256;114744;-62
2023/05/22 04:20:42;;;;;;;7.70;5.20;;;;;;;13.55;63.36;100467.91;129512;1280;128859;-62
2023/05/22 04:23:44;;;;;;;6.70;4.80;;;;;;;13.66;63.15;100460.80;129441;1280;115139;-64
2023/05/22 04:26:46;;;;;;;12.30;6.20;;;;;;;13.79;63.15;100464.54;129591;1262;116303;-62
2023/05/22 04:29:49;;;;;;;7.00;5.20;;;;;;;13.92;62.91;100460.48;129513;1260;114741;-62
2023/05/22 04:32:52;;;;;;;6.70;4.80;;;;;;;14.08;62.77;100462.24;129692;1262;114812;-63
2023/05/22 04:35:54;;;;;;;9.70;5.50;;;;;;;14.42;62.83;100461.05;129576;1260;114901;-64
2023/05/22 04:38:59;;;;;;;7.80;4.60;;;;;;;15.34;62.81;100454.58;129923;1256;114812;-64
2023/05/22 04:42:04;;;;;;;8.50;6.10;;;;;;;16.50;61.88;100453.58;129733;1278;128859;-61
2023/05/22 04:45:07;;;;;;;9.80;4.70;;;;;;;17.57;60.19;100447.20;129616;1280;115268;-64
2023/05/22 04:48:10;;;;;;;8.90;4.80;;;;;;;18.51;59.21;100447.64;129803;1261;115201;-64
2023/05/22 04:51:13;;;;;;;10.70;5.10;;;;;;;19.41;57.75;100442.84;129739;1262;114729;-62
2023/05/22 04:54:15;;;;;;;7.30;4.60;;;;;;;20.29;56.78;100449.98;129486;1260;115488;-62
2023/05/22 04:57:20;;;;;;;6.30;4.80;;;;;;;21.25;56.10;100449.80;129576;1259;114808;-63
2023/05/22 05:00:25;;;;;;;6.70;5.20;;;;;;;22.24;54.93;100445.67;129559;1262;128262;-61
2023/05/22 05:03:27;;;;;;;10.20;4.40;;;;;;;23.11;53.08;100446.63;129568;1280;115163;-62
2023/05/22 05:06:30;;;;;;;8.10;4.70;;;;;;;23.63;51.32;100447.50;129899;1280;115117;-62
2023/05/22 05:09:32;;;;;;;9.70;4.90;;;;;;;24.14;50.15;100448.83;129757;1278;114730;-61
2023/05/22 05:12:34;;;;;;;8.30;4.90;;;;;;;24.74;49.28;100454.20;129534;1268;115451;-61
2023/05/22 05:15:36;;;;;;;6.90;5.10;;;;;;;25.30;48.46;100453.45;129792;1280;114819;-60
2023/05/22 05:18:39;;;;;;;5.70;4.90;;;;;;;25.88;47.61;100454.45;129612;1277;114725;-61
2023/05/22 05:21:41;;;;;;;5.30;4.30;;;;;;;26.46;45.78;100455.25;129679;1280;114757;-61
2023/05/22 05:24:43;;;;;;;6.00;4.20;;;;;;;26.74;44.66;100452.95;129543;1268;115123;-60
2023/05/22 05:27:46;;;;;;;6.40;4.50;;;;;;;26.96;44.30;100448.38;129893;1260;115463;-61
2023/05/22 05:30:48;;;;;;;5.20;4.60;;;;;;;27.18;42.12;100445.84;129834;1280;114750;-62
2023/05/22 05:33:51;;;;;;;6.30;4.30;;;;;;;27.12;41.39;100449.02;129770;1280;114761;-62
2023/05/22 05:36:56;;;;;;;6.30;4.40;;;;;;;27.06;41.15;100449.02;130046;1280;114819;-62
2023/05/22 05:39:58;;;;;;;7.80;4.60;;;;;;;27.08;41.18;100447.41;129431;1280;128018;-63
2023/05/22 05:43:01;;;;;;;9.20;5.10;;;;;;;27.24;40.85;100447.16;129967;1280;114745;-65
2023/05/22 05:46:04;;;;;;;4.70;4.20;;;;;;;27.42;40.00;100445.44;130005;1272;114698;-66
2023/05/22 05:49:10;;;;;;;8.00;4.20;;;;;;;27.37;38.25;100447.87;130074;1256;114754;-67
2023/05/22 05:52:12;;;;;;;6.20;3.90;;;;;;;27.13;38.11;100447.65;129594;1262;114754;-63
2023/05/22 05:55:15;;;;;;;7.50;5.10;;;;;;;27.04;38.01;100446.32;130000;1262;115408;-65
2023/05/22 05:58:18;;;;;;;8.10;5.20;;;;;;;27.01;37.92;100441.60;130001;1272;115232;-62
2023/05/22 06:01:23;;;;;;;4.90;4.40;;;;;;;27.06;38.37;100448.38;129782;1260;114829;-63
2023/05/22 06:04:27;;;;;;;6.60;4.10;;;;;;;27.23;37.81;100448.51;129782;1278;114785;-65
2023/05/22 06:07:30;;;;;;;8.00;4.40;;;;;;;27.33;37.44;100443.91;129701;1280;114739;-66
2023/05/22 06:10:34;;;;;;;9.40;3.90;;;;;;;27.38;37.06;100441.50;129531;1262;119418;-63
2023/05/22 06:13:37;;;;;;;6.70;4.40;;;;;;;27.39;36.55;100438.69;129591;1272;115537;-61
2023/05/22 06:16:40;;;;;;;5.20;3.50;;;;;;;27.30;36.11;100442.02;129671;1260;115185;-62
2023/05/22 06:19:42;;;;;;;6.90;4.20;;;;;;;27.15;36.53;100438.96;129625;1280;114797;-62
2023/05/22 06:22:44;;;;;;;6.90;4.00;;;;;;;26.81;35.57;100441.11;129616;1259;115224;-64
2023/05/22 06:25:47;;;;;;;4.30;3.90;;;;;;;26.30;35.47;100438.20;129716;1280;114805;-66
2023/05/22 06:28:50;;;;;;;5.20;4.50;;;;;;;26.03;36.07;100442.70;129477;1280;114720;-63
2023/05/22 06:31:52;;;;;;;5.20;3.70;;;;;;;25.98;35.94;100443.08;129596;1280;115886;-66
2023/05/22 06:34:54;;;;;;;5.20;3.80;;;;;;;25.77;35.70;100443.21;129545;1262;114732;-63
2023/05/22 06:37:57;;;;;;;6.80;4.60;;;;;;;25.59;36.29;100438.27;129615;1280;114782;-64
2023/05/22 06:40:59;;;;;;;4.80;3.40;;;;;;;25.74;36.35;100442.99;129445;1280;114771;-63
2023/05/22 06:44:02;;;;;;;12.10;4.90;;;;;;;25.85;36.12;100439.56;129557;1280;115176;-64
2023/05/22 06:47:04;;;;;;;4.80;3.90;;;;;;;25.94;36.10;100439.08;129642;1280;114788;-63
2023/05/22 06:50:09;;;;;;;10.50;4.00;;;;;;;26.14;36.31;100436.10;129472;1256;119759;-61
2023/05/22 06:53:14;;;;;;;9.00;4.00;;;;;;;26.33;35.99;100438.54;129693;1280;114743;-63
2023/05/22 06:56:18;;;;;;;5.80;4.10;;;;;;;26.47;36.08;100442.81;129770;1280;114735;-62
2023/05/22 06:59:20;;;;;;;5.00;4.00;;;;;;;26.64;35.77;100447.96;129674;1262;115197;-62
2023/05/22 07:02:22;;;;;;;10.70;4.40;;;;;;;26.94;35.91;100446.44;129773;1280;115211;-62
2023/05/22 07:05:25;;;;;;;6.10;4.00;;;;;;;27.42;35.35;100444.55;129674;1279;114633;-61
2023/05/22 07:08:27;;;;;;;8.10;4.20;;;;;;;27.67;34.97;100441.23;129876;1280;114782;-62
2023/05/22 07:11:29;;;;;;;5.30;4.00;;;;;;;28.02;34.71;100444.45;129420;1262;114916;-65
2023/05/22 07:14:32;;;;;;;5.50;3.80;;;;;;;28.29;34.26;100442.30;129677;1262;115421;-65
2023/05/22 07:17:34;;;;;;;5.90;4.40;;;;;;;28.59;33.97;100443.05;129620;1280;114741;-64
2023/05/22 07:20:37;;;;;;;7.30;4.00;;;;;;;28.86;33.11;100442.86;129714;1280;115199;-62
2023/05/22 07:23:39;;;;;;;6.40;4.00;;;;;;;28.82;32.84;100442.60;129633;1279;114834;-63
2023/05/22 07:26:45;;;;;;;5.10;4.40;;;;;;;28.91;32.82;100440.70;129941;1257;114717;-65
2023/05/22 07:29:47;;;;;;;9.80;3.60;;;;;;;29.13;33.04;100440.20;129518;1263;114829;-63
2023/05/22 07:32:50;;;;;;;5.30;4.00;;;;;;;29.53;32.53;100440.70;129580;1262;114778;-63
2023/05/22 07:35:52;;;;;;;4.80;3.60;;;;;;;29.48;31.34;100437.43;129750;1260;114813;-64
2023/05/22 07:38:55;;;;;;;4.90;3.80;;;;;;;29.26;31.54;100440.39;130030;1262;115195;-64
2023/05/22 07:41:57;;;;;;;4.20;3.60;;;;;;;29.37;31.43;100439.75;129790;1280;115004;-66
2023/05/22 07:45:00;;;;;;;5.50;3.90;;;;;;;29.31;31.36;100436.45;129900;1261;114800;-65
2023/05/22 07:48:03;;;;;;;6.10;3.50;;;;;;;29.39;31.34;100431.66;129877;1262;115142;-64
2023/05/22 07:51:06;;;;;;;6.10;3.70;;;;;;;29.53;31.13;100429.63;129897;1259;114826;-63
2023/05/22 07:54:08;;;;;;;6.30;4.30;;;;;;;29.73;31.09;100426.91;129988;1280;114725;-64
2023/05/22 07:57:11;;;;;;;6.60;3.60;;;;;;;29.98;31.16;100424.23;130106;1280;114765;-64
2023/05/22 08:00:15;;;;;;;6.10;4.20;;;;;;;30.31;30.69;100421.57;129884;1262;114763;-64
2023/05/22 08:03:17;;;;;;;;;;;;;;;30.30;29.98;100422.08;129611;1263;120215;-63
2023/05/22 08:06:21;;;;;;;8.50;3.70;;;;;;;30.33;30.37;100418.77;129886;1260;115167;-63
2023/05/22 08:09:24;;;;;;;6.90;4.40;;;;;;;30.40;30.06;100418.26;130083;1262;114722;-64
2023/05/22 08:12:26;;;;;;;7.80;4.50;;;;;;;30.22;29.00;100419.14;130095;1260;114733;-64
2023/05/22 08:15:28;;;;;;;9.00;3.60;;;;;;;29.74;29.46;100413.92;129978;1260;114821;-65
2023/05/22 08:18:31;;;;;;;5.20;4.00;;;;;;;29.74;29.46;100420.56;129682;1265;116377;-65
2023/05/22 08:21:36;;;;;;;6.10;3.80;;;;;;;29.87;29.59;100417.94;129850;1262;114808;-64
2023/05/22 08:24:38;;;;;;;5.60;3.80;;;;;;;29.95;29.57;100415.45;129466;1274;114845;-65
2023/05/22 08:27:40;;;;;;;7.20;4.30;;;;;;;29.85;29.40;100415.46;130198;1280;114769;-64
2023/05/22 08:30:43;;;;;;;5.80;4.50;;;;;;;29.68;28.92;100416.67;129929;1280;114863;-64
2023/05/22 08:33:45;;;;;;;8.30;3.70;;;;;;;29.47;29.19;100419.08;130060;1265;114821;-64
2023/05/22 08:36:48;;;;;;;5.60;3.60;;;;;;;29.40;29.02;100420.60;129913;1262;114669;-64
2023/05/22 08:39:50;;;;;;;4.00;3.00;;;;;;;29.18;29.10;100420.23;129861;1276;119416;-65
2023/05/22 08:42:53;;;;;;;3.60;3.30;;;;;;;29.07;28.65;100417.39;129805;1280;114736;-65
2023/05/22 08:46:07;;;;;;;4.20;3.20;;;;;;;29.10;29.11;100413.42;130118;1280;114755;-66
2023/05/22 08:49:10;;;;;;;4.60;3.00;;;;;;;28.97;28.71;100410.02;129937;1262;114843;-66
2023/05/22 08:52:17;;;;;;;6.30;3.30;;;;;;;28.91;28.63;100406.77;130039;1280;114684;-64
2023/05/22 08:55:19;;;;;;;7.20;3.30;;;;;;;28.79;28.18;100400.66;129825;1262;120249;-63
2023/05/22 08:58:22;;;;;;;5.00;3.10;;;;;;;28.68;28.27;100400.62;129748;1273;114721;-65
2023/05/22 09:01:25;;;;;;;5.00;3.00;;;;;;;28.62;28.60;100396.73;129806;1263;114781;-66
2023/05/22 09:04:27;;;;;;;7.00;3.20;;;;;;;28.54;28.17;100397.39;129880;1280;115624;-65
2023/05/22 09:07:29;;;;;;;3.00;2.70;;;;;;;28.31;28.19;100389.76;129729;1263;115348;-65
2023/05/22 09:10:31;;;;;;;7.10;3.10;;;;;;;28.18;28.29;100388.34;130018;1281;114731;-64
2023/05/22 09:13:34;;;;;;;5.90;2.90;;;;;;;28.10;28.00;100387.68;129643;1262;114790;-65
2023/05/22 09:16:47;;;;;;;3.10;2.70;;;;;;;27.88;27.68;100381.48;129768;1271;120245;-67
2023/05/22 09:19:49;;;;;;;4.00;2.60;;;;;;;27.77;27.94;100378.81;129498;1265;114776;-63
2023/05/22 09:22:52;;;;;;;10.80;3.30;;;;;;;27.77;28.04;100376.23;129854;1279;114734;-64
2023/05/22 09:25:59;;;;;;;7.20;3.00;;;;;;;27.73;28.07;100374.85;130079;1280;114775;-65
2023/05/22 09:29:01;;;;;;;7.40;3.20;;;;;;;27.80;28.10;100373.39;129779;1262;115322;-63
2023/05/22 09:32:12;;;;;;;4.30;2.80;;;;;;;27.85;28.03;100377.11;129737;1270;114792;-67
2023/05/22 09:35:15;;;;;;;4.90;2.40;;;;;;;27.69;27.56;100375.00;130090;1263;114764;-66
2023/05/22 09:38:17;;;;;;;5.60;3.00;;;;;;;27.51;27.36;100373.93;130127;1260;115184;-66
2023/05/22 09:41:21;;;;;;;6.60;2.70;;;;;;;27.35;28.11;100370.98;129947;1280;114830;-65
2023/05/22 09:44:25;;;;;;;5.30;2.70;;;;;;;27.35;28.12;100364.63;129589;1265;114797;-64
2023/05/22 09:47:27;;;;;;;3.40;2.70;;;;;;;27.33;27.56;100363.36;129494;1280;114878;-63
2023/05/22 09:50:31;;;;;;;4.80;2.60;;;;;;;27.09;27.56;100363.86;129668;1268;114869;-65
2023/05/22 09:53:34;;;;;;;5.70;2.70;;;;;;;26.88;27.68;100364.33;130344;1262;115149;-64
2023/05/22 09:56:37;;;;;;;5.30;3.10;;;;;;;26.72;27.52;100363.91;129955;1263;114808;-63
2023/05/22 09:59:41;;;;;;;3.70;2.50;;;;;;;26.60;27.82;100364.24;129831;1280;115391;-63
2023/05/22 10:02:45;;;;;;;2.20;2.00;;;;;;;26.57;27.68;100356.85;129693;1280;114784;-65
2023/05/22 10:05:52;;;;;;;4.80;2.90;;;;;;;26.48;27.31;100353.91;127789;1264;2628931;-63
2023/05/22 10:08:59;;;;;;;3.80;2.70;;;;;;;26.29;27.04;100352.80;129521;1275;119248;-66
2023/05/22 10:12:05;;;;;;;10.10;2.90;;;;;;;26.12;27.46;100349.44;129755;1280;115142;-66
2023/05/22 10:15:12;;;;;;;4.10;3.00;;;;;;;26.06;27.45;100349.10;129516;1265;114741;-68
2023/05/22 10:18:16;;;;;;;5.00;2.70;;;;;;;25.90;27.53;100344.96;129966;1264;114869;-68
2023/05/22 10:21:19;;;;;;;4.60;2.80;;;;;;;25.76;27.88;100345.20;129920;1264;114806;-67
2023/05/22 10:24:23;;;;;;;3.90;2.60;;;;;;;25.61;27.80;100348.97;130163;1262;120345;-65
2023/05/22 10:27:25;;;;;;;;;;;;;;;25.50;28.00;100352.08;129343;1266;114817;-64
2023/05/22 10:30:47;;;;;;;5.70;2.70;;;;;;;25.34;27.87;100349.90;129532;1262;114811;-66
2023/05/22 10:33:55;;;;;;;4.20;2.70;;;;;;;25.03;27.89;100341.94;129614;1280;114738;-66
2023/05/22 10:37:13;;;;;;;9.50;2.80;;;;;;;24.81;28.21;100347.66;129562;1269;116386;-67
2023/05/22 10:40:27;;;;;;;5.80;2.80;;;;;;;24.68;28.16;100339.70;129815;1263;128876;-65
2023/05/22 10:43:32;;;;;;;4.40;2.60;;;;;;;24.50;28.52;100340.46;129668;1266;115244;-66
2023/05/22 10:46:35;;;;;;;5.10;2.80;;;;;;;24.36;28.41;100341.20;129901;1269;114750;-63
2023/05/22 10:49:39;;;;;;;4.70;2.70;;;;;;;24.23;28.58;100343.48;129860;1278;114746;-63
2023/05/22 10:52:41;;;;;;;5.90;2.80;;;;;;;24.14;29.04;100340.23;129653;1272;114764;-66
2023/05/22 10:55:50;;;;;;;7.50;2.80;;;;;;;24.18;29.51;100338.02;129852;1261;114713;-66
2023/05/22 10:58:57;;;;;;;3.00;2.60;;;;;;;24.19;29.38;100334.42;129449;1262;115172;-66
2023/05/22 11:02:00;;;;;;;5.40;3.30;;;;;;;24.15;29.36;100332.67;129936;1270;115203;-67
2023/05/22 11:05:17;;;;;;;6.90;2.70;;;;;;;24.06;29.49;100331.19;129938;1264;114744;-63
2023/05/22 11:08:25;;;;;;;7.60;2.90;;;;;;;24.03;29.36;100334.05;129600;1266;114750;-66
2023/05/22 11:11:27;;;;;;;7.30;3.20;;;;;;;24.00;29.57;100330.98;129730;1280;130080;-64
2023/05/22 11:14:30;;;;;;;3.50;3.10;;;;;;;23.99;29.62;100330.09;129567;1278;115131;-66
2023/05/22 11:17:41;;;;;;;4.20;2.80;;;;;;;23.95;29.50;100331.29;129500;1272;114831;-66
2023/05/22 11:20:45;;;;;;;4.10;2.70;;;;;;;23.87;29.70;100325.15;129486;1263;114901;-64
2023/05/22 11:23:48;;;;;;;4.30;2.20;;;;;;;23.81;30.12;100318.27;129418;1280;114835;-63
2023/05/22 11:27:09;;;;;;;7.70;3.30;;;;;;;23.77;30.16;100323.24;129886;1280;114854;-63
2023/05/22 11:30:12;;;;;;;5.50;3.00;;;;;;;23.78;30.18;100321.70;129705;1258;115220;-62
2023/05/22 11:33:17;;;;;;;7.30;3.00;;;;;;;23.76;29.81;100317.13;129534;1273;115401;-62
2023/05/22 11:36:20;;;;;;;5.70;2.90;;;;;;;23.79;30.14;100314.16;130048;1270;114770;-62
2023/05/22 11:39:22;;;;;;;6.80;2.80;;;;;;;23.84;29.98;100308.54;129960;1280;114894;-65
2023/05/22 11:42:24;;;;;;;4.50;3.20;;;;;;;23.89;29.83;100309.31;129612;1280;115072;-62
2023/05/22 11:45:27;;;;;;;5.50;3.10;;;;;;;23.88;29.70;100306.06;129788;1280;128884;-61
2023/05/22 11:48:29;;;;;;;5.70;3.40;;;;;;;23.90;30.23;100303.89;129562;1261;116361;-61
2023/05/22 11:51:32;;;;;;;3.10;2.80;;;;;;;23.95;30.35;100308.42;129636;1272;114721;-62
2023/05/22 11:54:35;;;;;;;6.10;3.50;;;;;;;23.98;30.10;100307.38;129811;1263;115212;-61
2023/05/22 11:57:38;;;;;;;4.50;2.90;;;;;;;23.95;30.20;100304.29;129677;1266;114753;-61
2023/05/22 12:00:42;;;;;;;7.90;3.60;;;;;;;23.90;30.37;100304.23;129810;1280;115167;-62
2023/05/22 12:03:44;;;;;;;5.40;3.20;;;;;;;23.90;30.54;100302.80;129539;1275;129833;-63
2023/05/22 12:06:47;;;;;;;3.70;3.00;;;;;;;23.91;30.03;100300.70;129591;1262;114851;-62
2023/05/22 12:09:49;;;;;;;3.30;2.80;;;;;;;23.91;30.19;100288.02;129688;1261;114732;-61
2023/05/22 12:12:51;;;;;;;3.40;2.90;;;;;;;23.97;30.56;100292.21;129683;1280;114897;-62
2023/05/22 12:15:58;;;;;;;4.00;3.10;;;;;;;23.99;29.91;100294.15;129666;1280;114728;-62
2023/05/22 12:19:07;;;;;;;4.30;3.20;;;;;;;23.96;30.13;100289.02;129548;1263;114764;-62
2023/05/22 12:22:10;;;;;;;5.50;3.10;;;;;;;24.01;30.19;100288.30;129583;1262;129748;-62
2023/05/22 12:25:18;;;;;;;4.50;3.10;;;;;;;24.02;30.19;100281.05;129698;1257;114689;-64
2023/05/22 12:28:20;;;;;;;5.70;3.30;;;;;;;24.03;30.02;100278.08;129608;1270;114735;-64
2023/05/22 12:31:23;;;;;;;4.50;2.70;;;;;;;24.03;30.03;100278.83;129607;1280;115154;-62
2023/05/22 12:34:25;;;;;;;6.50;3.30;;;;;;;24.02;30.14;100277.23;129799;1277;114713;-63
2023/05/22 12:37:28;;;;;;;7.70;2.90;;;;;;;24.05;30.14;100272.90;129779;1257;115599;-62
2023/05/22 12:40:30;;;;;;;8.90;3.60;;;;;;;24.05;30.00;100272.95;129291;1269;128394;-62
2023/05/22 12:43:32;;;;;;;6.70;2.90;;;;;;;24.06;30.12;100270.03;129491;1261;115263;-63
2023/05/22 12:46:34;;;;;;;5.30;2.90;;;;;;;24.03;29.39;100273.70;129536;1280;115857;-63
2023/05/22 12:49:36;;;;;;;3.50;3.00;;;;;;;23.92;29.34;100269.56;129619;1261;115337;-63
2023/05/22 12:52:41;;;;;;;4.30;3.00;;;;;;;23.87;29.41;100266.45;129543;1262;114859;-61
2023/05/22 12:55:47;;;;;;;7.70;4.00;;;;;;;23.84;29.19;100265.48;129400;1257;114903;-64
2023/05/22 12:58:50;;;;;;;6.50;3.00;;;;;;;23.81;29.20;100263.02;129340;1280;129815;-64
2023/05/22 13:01:52;;;;;;;5.50;3.50;;;;;;;23.85;29.50;100263.16;129636;1261;115317;-61
2023/05/22 13:04:54;;;;;;;4.30;3.20;;;;;;;23.95;29.59;100262.63;129770;1260;114763;-62
2023/05/22 13:07:57;;;;;;;6.50;3.40;;;;;;;24.03;29.32;100263.81;129732;1270;114703;-62
2023/05/22 13:11:00;;;;;;;5.10;2.80;;;;;;;24.05;29.18;100253.19;129630;1270;114690;-62
2023/05/22 13:14:02;;;;;;;8.50;3.30;;;;;;;24.14;29.33;100253.04;129679;1271;115096;-63
2023/05/22 13:17:05;;;;;;;4.90;3.50;;;;;;;24.19;29.01;100248.20;129708;1280;114782;-65
2023/05/22 13:20:08;;;;;;;6.00;2.80;;;;;;;24.25;29.12;100251.83;129632;1280;114854;-61
2023/05/22 13:23:10;;;;;;;9.70;2.90;;;;;;;24.29;29.08;100246.48;129735;1257;114785;-64
2023/05/22 13:26:13;;;;;;;5.40;2.90;;;;;;;24.32;28.90;100243.41;129443;1258;114930;-61
2023/05/22 13:29:15;;;;;;;5.10;3.10;;;;;;;24.35;29.02;100242.86;129513;1257;114769;-61
2023/05/22 13:32:18;;;;;;;4.40;3.10;;;;;;;24.35;28.40;100238.89;129682;1280;114751;-63
2023/05/22 13:35:21;;;;;;;11.00;4.10;;;;;;;24.31;28.52;100235.49;129628;1280;114743;-62
2023/05/22 13:38:23;;;;;;;6.60;3.20;;;;;;;24.30;28.50;100229.92;129594;1280;115189;-64
2023/05/22 13:41:26;;;;;;;6.40;3.40;;;;;;;24.29;28.74;100227.66;129358;1281;115217;-63
2023/05/22 13:44:28;;;;;;;4.20;2.80;;;;;;;24.30;28.46;100224.42;129630;1264;114834;-63
2023/05/22 13:47:31;;;;;;;4.30;2.90;;;;;;;24.28;28.56;100220.40;129667;1257;115274;-62
2023/05/22 13:50:33;;;;;;;4.20;2.80;;;;;;;24.28;28.68;100218.25;129627;1257;114688;-62
2023/05/22 13:53:37;;;;;;;5.10;2.30;;;;;;;24.28;28.77;100212.80;129259;1257;114798;-63
2023/05/22 13:56:40;;;;;;;3.30;2.70;;;;;;;24.29;28.58;100212.48;129655;1281;129249;-63